sensor_id;sensor_type;location;lat;lon;timestamp;pressure;altitude;pressure_sealevel;temperature;humidity
43298;BME280;28892;55.640;37.532;2024-01-30T00:00:32;99794.03;;;1.02;64.73
43298;BME280;28892;55.640;37.532;2024-01-30T00:03:01;99786.78;;;1.18;64.40
43298;BME280;28892;55.640;37.532;2024-01-30T00:05:26;99786.78;;;1.18;64.22
43298;BME280;28892;55.640;37.532;2024-01-30T00:07:52;99783.03;;;1.22;64.24
43298;BME280;28892;55.640;37.532;2024-01-30T00:10:25;99787.06;;;0.89;64.15
43298;BME280;28892;55.640;37.532;2024-01-30T00:12:53;99803.16;;;1.09;64.58
43298;BME280;28892;55.640;37.532;2024-01-30T00:15:21;99798.41;;;1.14;64.42
43298;BME280;28892;55.640;37.532;2024-01-30T00:17:47;99805.94;;;1.06;64.28
43298;BME280;28892;55.640;37.532;2024-01-30T00:24:10;99793.59;;;1.08;64.85
43298;BME280;28892;55.640;37.532;2024-01-30T00:26:36;99786.06;;;1.16;64.59
43298;BME280;28892;55.640;37.532;2024-01-30T00:29:02;99798.41;;;1.14;64.55
43298;BME280;28892;55.640;37.532;2024-01-30T00:31:28;99789.44;;;1.05;64.62
43298;BME280;28892;55.640;37.532;2024-01-30T00:33:54;99792.97;;;1.17;64.72
43298;BME280;28892;55.640;37.532;2024-01-30T00:36:20;99801.66;;;1.18;64.25
43298;BME280;28892;55.640;37.532;2024-01-30T00:38:46;99796.44;;;1.18;64.55
43298;BME280;28892;55.640;37.532;2024-01-30T00:41:14;99791.84;;;1.21;64.18
43298;BME280;28892;55.640;37.532;2024-01-30T00:43:39;99792.47;;;1.12;64.53
43298;BME280;28892;55.640;37.532;2024-01-30T00:46:05;99787.13;;;1.14;64.79
43298;BME280;28892;55.640;37.532;2024-01-30T00:48:31;99774.81;;;1.16;64.63
43298;BME280;28892;55.640;37.532;2024-01-30T00:50:56;99781.25;;;1.23;64.79
43298;BME280;28892;55.640;37.532;2024-01-30T00:53:28;99766.97;;;1.16;64.21
43298;BME280;28892;55.640;37.532;2024-01-30T00:56:09;99774.34;;;1.22;64.59
43298;BME280;28892;55.640;37.532;2024-01-30T00:58:35;99781.78;;;1.15;64.50
43298;BME280;28892;55.640;37.532;2024-01-30T01:01:01;99779.81;;;1.06;65.03
43298;BME280;28892;55.640;37.532;2024-01-30T01:03:27;99773.63;;;1.20;64.88
43298;BME280;28892;55.640;37.532;2024-01-30T01:05:52;99770.47;;;1.28;64.42
43298;BME280;28892;55.640;37.532;2024-01-30T01:08:18;99767.66;;;1.31;64.40
43298;BME280;28892;55.640;37.532;2024-01-30T01:10:44;99755.94;;;1.36;63.99
43298;BME280;28892;55.640;37.532;2024-01-30T01:13:09;99765.22;;;1.41;63.98
43298;BME280;28892;55.640;37.532;2024-01-30T01:15:35;99771.19;;;1.30;64.32
43298;BME280;28892;55.640;37.532;2024-01-30T01:18:01;99778.00;;;1.32;64.24
43298;BME280;28892;55.640;37.532;2024-01-30T01:20:27;99771.25;;;1.17;64.29
43298;BME280;28892;55.640;37.532;2024-01-30T01:42:18;99759.31;;;1.25;64.66
43298;BME280;28892;55.640;37.532;2024-01-30T01:44:44;99758.03;;;1.31;64.71
43298;BME280;28892;55.640;37.532;2024-01-30T01:47:27;99750.84;;;1.22;64.61
43298;BME280;28892;55.640;37.532;2024-01-30T01:54:13;99750.63;;;1.25;64.55
43298;BME280;28892;55.640;37.532;2024-01-30T01:56:48;99748.75;;;1.27;64.71
43298;BME280;28892;55.640;37.532;2024-01-30T01:59:15;99732.34;;;1.25;64.62
43298;BME280;28892;55.640;37.532;2024-01-30T02:01:41;99743.19;;;1.32;64.94
43298;BME280;28892;55.640;37.532;2024-01-30T02:04:09;99748.59;;;1.42;64.51
43298;BME280;28892;55.640;37.532;2024-01-30T02:06:35;99741.38;;;1.45;64.25
43298;BME280;28892;55.640;37.532;2024-01-30T02:09:01;99737.97;;;1.32;64.63
43298;BME280;28892;55.640;37.532;2024-01-30T02:11:26;99737.56;;;1.49;64.17
43298;BME280;28892;55.640;37.532;2024-01-30T02:13:53;99739.47;;;1.47;64.26
43298;BME280;28892;55.640;37.532;2024-01-30T02:16:19;99737.69;;;1.10;64.71
43298;BME280;28892;55.640;37.532;2024-01-30T02:18:49;99743.00;;;1.22;64.89
43298;BME280;28892;55.640;37.532;2024-01-30T02:21:18;99722.41;;;1.17;65.20
43298;BME280;28892;55.640;37.532;2024-01-30T02:23:44;99741.28;;;1.34;64.64
43298;BME280;28892;55.640;37.532;2024-01-30T02:26:10;99733.50;;;1.21;64.74
43298;BME280;28892;55.640;37.532;2024-01-30T02:28:38;99734.09;;;1.24;64.83
43298;BME280;28892;55.640;37.532;2024-01-30T02:31:04;99727.59;;;1.30;64.90
43298;BME280;28892;55.640;37.532;2024-01-30T02:33:30;99743.19;;;1.32;65.10
43298;BME280;28892;55.640;37.532;2024-01-30T02:35:59;99738.22;;;1.40;64.94
43298;BME280;28892;55.640;37.532;2024-01-30T02:38:25;99750.47;;;1.39;64.68
43298;BME280;28892;55.640;37.532;2024-01-30T02:40:54;99732.25;;;1.51;64.39
43298;BME280;28892;55.640;37.532;2024-01-30T02:43:21;99733.75;;;1.42;64.30
43298;BME280;28892;55.640;37.532;2024-01-30T02:45:47;99740.41;;;1.46;64.73
43298;BME280;28892;55.640;37.532;2024-01-30T02:48:13;99741.28;;;1.34;64.80
43298;BME280;28892;55.640;37.532;2024-01-30T02:50:38;99727.91;;;1.38;65.13
43298;BME280;28892;55.640;37.532;2024-01-30T02:53:04;99741.25;;;1.47;65.04
43298;BME280;28892;55.640;37.532;2024-01-30T02:55:34;99746.75;;;1.55;64.83
43298;BME280;28892;55.640;37.532;2024-01-30T02:58:03;99733.69;;;1.55;64.66
43298;BME280;28892;55.640;37.532;2024-01-30T03:00:30;99722.06;;;1.59;64.44
43298;BME280;28892;55.640;37.532;2024-01-30T03:02:58;99738.19;;;1.53;64.46
43298;BME280;28892;55.640;37.532;2024-01-30T03:05:27;99734.25;;;1.72;64.42
43298;BME280;28892;55.640;37.532;2024-01-30T03:07:59;99739.81;;;1.67;64.31
43298;BME280;28892;55.640;37.532;2024-01-30T03:10:27;99735.75;;;1.63;64.53
43298;BME280;28892;55.640;37.532;2024-01-30T03:12:53;99728.84;;;1.62;64.17
43298;BME280;28892;55.640;37.532;2024-01-30T03:15:19;99736.84;;;1.47;64.82
43298;BME280;28892;55.640;37.532;2024-01-30T03:17:45;99744.94;;;1.44;65.01
43298;BME280;28892;55.640;37.532;2024-01-30T03:20:14;99752.69;;;1.57;65.31
43298;BME280;28892;55.640;37.532;2024-01-30T03:22:43;99736.63;;;1.26;65.46
43298;BME280;28892;55.640;37.532;2024-01-30T03:25:11;99749.97;;;1.34;65.46
43298;BME280;28892;55.640;37.532;2024-01-30T03:27:37;99748.16;;;1.48;65.44
43298;BME280;28892;55.640;37.532;2024-01-30T03:30:03;99753.59;;;1.45;65.21
43298;BME280;28892;55.640;37.532;2024-01-30T03:32:29;99768.13;;;1.49;65.25
43298;BME280;28892;55.640;37.532;2024-01-30T03:34:55;99754.41;;;1.58;65.01
43298;BME280;28892;55.640;37.532;2024-01-30T03:37:25;99745.75;;;1.69;64.71
43298;BME280;28892;55.640;37.532;2024-01-30T03:39:58;99752.16;;;1.65;64.80
43298;BME280;28892;55.640;37.532;2024-01-30T03:42:34;99742.31;;;1.69;64.64
43298;BME280;28892;55.640;37.532;2024-01-30T03:45:01;99744.53;;;1.62;64.94
43298;BME280;28892;55.640;37.532;2024-01-30T03:47:27;99741.53;;;1.79;65.16
43298;BME280;28892;55.640;37.532;2024-01-30T03:49:52;99741.28;;;1.83;64.33
43298;BME280;28892;55.640;37.532;2024-01-30T03:52:21;99748.66;;;1.77;64.73
43298;BME280;28892;55.640;37.532;2024-01-30T03:54:50;99759.78;;;1.68;64.79
43298;BME280;28892;55.640;37.532;2024-01-30T03:57:16;99782.53;;;1.55;65.03
43298;BME280;28892;55.640;37.532;2024-01-30T04:00:01;99766.78;;;1.67;65.32
43298;BME280;28892;55.640;37.532;2024-01-30T04:02:39;99771.91;;;1.69;64.93
43298;BME280;28892;55.640;37.532;2024-01-30T04:05:06;99754.22;;;1.73;64.71
43298;BME280;28892;55.640;37.532;2024-01-30T04:07:31;99764.84;;;1.83;64.70
43298;BME280;28892;55.640;37.532;2024-01-30T04:09:59;99760.50;;;1.70;64.95
43298;BME280;28892;55.640;37.532;2024-01-30T04:12:25;99767.19;;;1.74;65.05
43298;BME280;28892;55.640;37.532;2024-01-30T04:14:51;99762.00;;;1.86;65.20
43298;BME280;28892;55.640;37.532;2024-01-30T04:17:17;99775.56;;;1.91;64.85
43298;BME280;28892;55.640;37.532;2024-01-30T04:19:43;99772.81;;;1.81;64.69
43298;BME280;28892;55.640;37.532;2024-01-30T04:22:11;99783.66;;;1.63;65.27
43298;BME280;28892;55.640;37.532;2024-01-30T04:24:37;99766.53;;;1.59;65.32
43298;BME280;28892;55.640;37.532;2024-01-30T04:27:06;99780.44;;;1.84;64.98
43298;BME280;28892;55.640;37.532;2024-01-30T04:29:31;99778.53;;;1.86;65.06
43298;BME280;28892;55.640;37.532;2024-01-30T04:32:00;99773.06;;;1.89;64.95
43298;BME280;28892;55.640;37.532;2024-01-30T04:34:28;99778.28;;;1.89;65.00
43298;BME280;28892;55.640;37.532;2024-01-30T04:36:53;99779.75;;;1.93;64.81
43298;BME280;28892;55.640;37.532;2024-01-30T04:39:21;99770.69;;;1.62;66.02
43298;BME280;28892;55.640;37.532;2024-01-30T04:41:48;99771.22;;;1.54;66.25
43298;BME280;28892;55.640;37.532;2024-01-30T04:44:14;99765.41;;;1.75;65.93
43298;BME280;28892;55.640;37.532;2024-01-30T04:46:41;99773.81;;;1.67;66.00
43298;BME280;28892;55.640;37.532;2024-01-30T04:49:09;99761.72;;;1.77;65.87
43298;BME280;28892;55.640;37.532;2024-01-30T04:51:39;99768.91;;;1.87;65.30
43298;BME280;28892;55.640;37.532;2024-01-30T04:54:05;99772.09;;;1.55;66.50
43298;BME280;28892;55.640;37.532;2024-01-30T04:56:36;99753.50;;;1.71;65.92
43298;BME280;28892;55.640;37.532;2024-01-30T04:59:03;99770.28;;;1.79;65.74
43298;BME280;28892;55.640;37.532;2024-01-30T05:01:29;99774.63;;;1.92;65.55
43298;BME280;28892;55.640;37.532;2024-01-30T05:03:55;99774.59;;;1.80;65.86
43298;BME280;28892;55.640;37.532;2024-01-30T05:06:39;99775.91;;;1.86;65.87
43298;BME280;28892;55.640;37.532;2024-01-30T05:09:19;99787.63;;;1.93;65.54
43298;BME280;28892;55.640;37.532;2024-01-30T05:11:45;99778.72;;;1.72;65.91
43298;BME280;28892;55.640;37.532;2024-01-30T05:14:10;99784.38;;;1.90;65.64
43298;BME280;28892;55.640;37.532;2024-01-30T05:16:37;99777.47;;;1.89;65.74
43298;BME280;28892;55.640;37.532;2024-01-30T05:19:05;99779.53;;;1.97;65.62
43298;BME280;28892;55.640;37.532;2024-01-30T05:21:31;99781.03;;;1.88;65.62
43298;BME280;28892;55.640;37.532;2024-01-30T05:23:56;99780.47;;;1.95;65.42
43298;BME280;28892;55.640;37.532;2024-01-30T05:26:24;99783.41;;;2.15;65.04
43298;BME280;28892;55.640;37.532;2024-01-30T05:28:58;99790.00;;;1.97;65.22
43298;BME280;28892;55.640;37.532;2024-01-30T05:31:24;99778.78;;;2.19;64.90
43298;BME280;28892;55.640;37.532;2024-01-30T05:34:13;99784.63;;;2.22;65.06
43298;BME280;28892;55.640;37.532;2024-01-30T05:36:42;99786.06;;;2.27;64.98
43298;BME280;28892;55.640;37.532;2024-01-30T05:39:08;99793.28;;;2.12;64.86
43298;BME280;28892;55.640;37.532;2024-01-30T05:41:37;99791.00;;;2.07;65.47
43298;BME280;28892;55.640;37.532;2024-01-30T05:44:06;99776.84;;;2.09;65.32
43298;BME280;28892;55.640;37.532;2024-01-30T05:46:33;99785.19;;;2.15;65.17
43298;BME280;28892;55.640;37.532;2024-01-30T05:48:59;99790.41;;;2.15;64.71
43298;BME280;28892;55.640;37.532;2024-01-30T05:51:25;99782.81;;;1.87;66.05
43298;BME280;28892;55.640;37.532;2024-01-30T05:53:51;99785.47;;;1.99;65.64
43298;BME280;28892;55.640;37.532;2024-01-30T05:56:17;99781.91;;;2.00;65.52
43298;BME280;28892;55.640;37.532;2024-01-30T05:58:45;99806.88;;;2.17;65.40
43298;BME280;28892;55.640;37.532;2024-01-30T06:01:11;99796.16;;;2.20;65.23
43298;BME280;28892;55.640;37.532;2024-01-30T06:03:37;99808.34;;;2.08;65.30
43298;BME280;28892;55.640;37.532;2024-01-30T06:06:05;99803.19;;;1.95;65.99
43298;BME280;28892;55.640;37.532;2024-01-30T06:08:31;99800.03;;;2.03;65.72
43298;BME280;28892;55.640;37.532;2024-01-30T06:11:00;99804.34;;;2.15;65.55
43298;BME280;28892;55.640;37.532;2024-01-30T06:13:26;99811.22;;;2.05;66.05
43298;BME280;28892;55.640;37.532;2024-01-30T06:15:56;99806.78;;;2.05;65.67
43298;BME280;28892;55.640;37.532;2024-01-30T06:18:22;99812.69;;;2.20;65.44
43298;BME280;28892;55.640;37.532;2024-01-30T06:20:48;99813.56;;;2.32;64.95
43298;BME280;28892;55.640;37.532;2024-01-30T06:23:14;99812.84;;;2.30;65.13
43298;BME280;28892;55.640;37.532;2024-01-30T06:25:41;99822.34;;;2.20;65.53
43298;BME280;28892;55.640;37.532;2024-01-30T06:31:32;99816.25;;;2.19;65.98
43298;BME280;28892;55.640;37.532;2024-01-30T06:34:01;99821.13;;;2.48;65.08
43298;BME280;28892;55.640;37.532;2024-01-30T06:36:30;99822.16;;;2.10;65.71
43298;BME280;28892;55.640;37.532;2024-01-30T06:38:59;99818.78;;;2.21;65.88
43298;BME280;28892;55.640;37.532;2024-01-30T06:41:31;99835.59;;;2.41;65.34
43298;BME280;28892;55.640;37.532;2024-01-30T06:44:07;99830.56;;;2.62;64.53
43298;BME280;28892;55.640;37.532;2024-01-30T06:46:33;99826.50;;;2.70;64.85
43298;BME280;28892;55.640;37.532;2024-01-30T06:49:00;99829.34;;;2.19;65.45
43298;BME280;28892;55.640;37.532;2024-01-30T06:51:27;99823.09;;;2.33;65.28
43298;BME280;28892;55.640;37.532;2024-01-30T06:53:54;99831.47;;;2.39;65.65
43298;BME280;28892;55.640;37.532;2024-01-30T06:56:20;99835.16;;;2.47;65.29
43298;BME280;28892;55.640;37.532;2024-01-30T07:01:39;99842.25;;;2.81;64.27
43298;BME280;28892;55.640;37.532;2024-01-30T07:04:06;99829.63;;;2.75;64.19
43298;BME280;28892;55.640;37.532;2024-01-30T07:06:33;99841.41;;;2.69;64.55
43298;BME280;28892;55.640;37.532;2024-01-30T07:09:00;99845.31;;;2.63;64.38
43298;BME280;28892;55.640;37.532;2024-01-30T07:11:30;99845.94;;;2.67;64.61
43298;BME280;28892;55.640;37.532;2024-01-30T07:14:01;99849.38;;;2.68;64.73
43298;BME280;28892;55.640;37.532;2024-01-30T07:16:35;99863.66;;;2.63;64.58
43298;BME280;28892;55.640;37.532;2024-01-30T07:19:02;99853.31;;;2.73;64.76
43298;BME280;28892;55.640;37.532;2024-01-30T07:21:28;99861.31;;;2.72;64.78
43298;BME280;28892;55.640;37.532;2024-01-30T07:23:54;99851.91;;;2.81;64.81
43298;BME280;28892;55.640;37.532;2024-01-30T07:26:21;99849.41;;;2.79;64.61
43298;BME280;28892;55.640;37.532;2024-01-30T07:28:51;99841.56;;;3.02;64.67
43298;BME280;28892;55.640;37.532;2024-01-30T07:31:19;99851.34;;;3.00;64.49
43298;BME280;28892;55.640;37.532;2024-01-30T07:33:51;99849.56;;;3.12;63.84
43298;BME280;28892;55.640;37.532;2024-01-30T07:36:18;99854.69;;;3.13;63.39
43298;BME280;28892;55.640;37.532;2024-01-30T07:38:45;99861.13;;;3.09;63.67
43298;BME280;28892;55.640;37.532;2024-01-30T07:41:11;99861.47;;;3.16;63.67
43298;BME280;28892;55.640;37.532;2024-01-30T07:43:40;99858.50;;;2.98;63.85
43298;BME280;28892;55.640;37.532;2024-01-30T07:46:06;99858.03;;;3.04;63.63
43298;BME280;28892;55.640;37.532;2024-01-30T07:48:33;99856.72;;;2.98;63.70
43298;BME280;28892;55.640;37.532;2024-01-30T07:51:00;99864.34;;;3.01;63.83
43298;BME280;28892;55.640;37.532;2024-01-30T07:53:31;99865.66;;;3.07;63.70
43298;BME280;28892;55.640;37.532;2024-01-30T07:56:07;99872.56;;;2.97;64.12
43298;BME280;28892;55.640;37.532;2024-01-30T07:59:04;99865.84;;;2.92;64.10
43298;BME280;28892;55.640;37.532;2024-01-30T08:01:48;99863.44;;;2.78;64.31
43298;BME280;28892;55.640;37.532;2024-01-30T08:04:18;99865.03;;;2.92;64.43
43298;BME280;28892;55.640;37.532;2024-01-30T08:06:44;99867.75;;;2.90;64.08
43298;BME280;28892;55.640;37.532;2024-01-30T08:09:11;99863.81;;;2.85;64.35
43298;BME280;28892;55.640;37.532;2024-01-30T08:11:41;99868.34;;;2.47;65.78
43298;BME280;28892;55.640;37.532;2024-01-30T08:14:08;99867.72;;;2.68;65.49
43298;BME280;28892;55.640;37.532;2024-01-30T08:16:35;99859.66;;;2.82;65.49
43298;BME280;28892;55.640;37.532;2024-01-30T08:19:02;99852.63;;;2.94;65.18
43298;BME280;28892;55.640;37.532;2024-01-30T08:21:29;99861.97;;;2.98;64.89
43298;BME280;28892;55.640;37.532;2024-01-30T08:24:07;99854.09;;;3.10;64.39
43298;BME280;28892;55.640;37.532;2024-01-30T08:26:36;99855.28;;;3.28;64.29
43298;BME280;28892;55.640;37.532;2024-01-30T08:29:14;99863.16;;;3.40;63.46
43298;BME280;28892;55.640;37.532;2024-01-30T08:32:15;99870.66;;;3.33;63.37
43298;BME280;28892;55.640;37.532;2024-01-30T08:34:41;99858.25;;;3.35;63.38
43298;BME280;28892;55.640;37.532;2024-01-30T08:37:08;99868.41;;;3.28;63.73
43298;BME280;28892;55.640;37.532;2024-01-30T08:39:37;99855.63;;;3.46;63.56
43298;BME280;28892;55.640;37.532;2024-01-30T08:42:05;99853.25;;;3.55;63.60
43298;BME280;28892;55.640;37.532;2024-01-30T08:44:34;99853.50;;;3.52;63.08
43298;BME280;28892;55.640;37.532;2024-01-30T08:47:06;99855.53;;;3.25;63.37
43298;BME280;28892;55.640;37.532;2024-01-30T08:49:32;99850.19;;;3.38;63.42
43298;BME280;28892;55.640;37.532;2024-01-30T08:52:02;99857.09;;;3.39;63.42
43298;BME280;28892;55.640;37.532;2024-01-30T08:54:32;99848.97;;;3.31;63.46
43298;BME280;28892;55.640;37.532;2024-01-30T08:57:01;99847.66;;;3.48;63.57
43298;BME280;28892;55.640;37.532;2024-01-30T08:59:27;99854.31;;;3.52;63.33
43298;BME280;28892;55.640;37.532;2024-01-30T09:01:54;99852.19;;;3.57;63.05
43298;BME280;28892;55.640;37.532;2024-01-30T09:04:21;99845.75;;;3.50;63.37
43298;BME280;28892;55.640;37.532;2024-01-30T09:06:49;99852.78;;;3.61;63.03
43298;BME280;28892;55.640;37.532;2024-01-30T09:09:17;99851.69;;;3.52;63.01
43298;BME280;28892;55.640;37.532;2024-01-30T09:11:45;99862.53;;;3.70;62.65
43298;BME280;28892;55.640;37.532;2024-01-30T09:14:12;99860.06;;;3.57;63.03
43298;BME280;28892;55.640;37.532;2024-01-30T09:16:39;99860.03;;;3.69;62.49
43298;BME280;28892;55.640;37.532;2024-01-30T09:19:06;99857.78;;;3.53;62.71
43298;BME280;28892;55.640;37.532;2024-01-30T09:21:32;99849.56;;;3.57;62.78
43298;BME280;28892;55.640;37.532;2024-01-30T09:24:02;99849.81;;;3.43;62.79
43298;BME280;28892;55.640;37.532;2024-01-30T09:26:29;99864.69;;;3.54;63.45
43298;BME280;28892;55.640;37.532;2024-01-30T09:28:55;99857.53;;;3.67;62.95
43298;BME280;28892;55.640;37.532;2024-01-30T09:31:43;99861.59;;;3.60;62.93
43298;BME280;28892;55.640;37.532;2024-01-30T09:34:12;99858.28;;;3.58;63.22
43298;BME280;28892;55.640;37.532;2024-01-30T09:36:39;99857.53;;;3.56;62.98
43298;BME280;28892;55.640;37.532;2024-01-30T09:39:06;99849.94;;;3.41;63.54
43298;BME280;28892;55.640;37.532;2024-01-30T09:41:34;99853.13;;;3.56;63.23
43298;BME280;28892;55.640;37.532;2024-01-30T09:44:02;99858.47;;;3.66;63.17
43298;BME280;28892;55.640;37.532;2024-01-30T09:46:29;99862.91;;;3.66;63.04
43298;BME280;28892;55.640;37.532;2024-01-30T09:48:57;99851.06;;;3.83;62.99
43298;BME280;28892;55.640;37.532;2024-01-30T09:51:23;99843.53;;;3.89;62.53
43298;BME280;28892;55.640;37.532;2024-01-30T09:53:52;99853.44;;;3.86;62.83
43298;BME280;28892;55.640;37.532;2024-01-30T09:56:21;99847.47;;;3.84;62.57
43298;BME280;28892;55.640;37.532;2024-01-30T09:58:48;99846.03;;;3.91;62.32
43298;BME280;28892;55.640;37.532;2024-01-30T10:01:23;99848.44;;;3.83;62.15
43298;BME280;28892;55.640;37.532;2024-01-30T10:03:54;99845.72;;;3.61;62.43
43298;BME280;28892;55.640;37.532;2024-01-30T10:06:22;99843.44;;;3.68;63.00
43298;BME280;28892;55.640;37.532;2024-01-30T10:08:52;99847.59;;;3.82;62.50
43298;BME280;28892;55.640;37.532;2024-01-30T10:11:20;99854.16;;;3.88;62.45
43298;BME280;28892;55.640;37.532;2024-01-30T10:13:50;99858.44;;;3.89;62.31
43298;BME280;28892;55.640;37.532;2024-01-30T10:16:17;99854.09;;;3.67;62.97
43298;BME280;28892;55.640;37.532;2024-01-30T10:18:45;99848.97;;;3.54;62.86
43298;BME280;28892;55.640;37.532;2024-01-30T10:21:12;99845.53;;;3.42;63.29
43298;BME280;28892;55.640;37.532;2024-01-30T10:23:41;99842.06;;;3.41;63.53
43298;BME280;28892;55.640;37.532;2024-01-30T10:26:09;99835.63;;;3.34;63.76
43298;BME280;28892;55.640;37.532;2024-01-30T10:28:38;99837.75;;;3.52;63.17
43298;BME280;28892;55.640;37.532;2024-01-30T10:31:04;99839.78;;;3.37;63.72
43298;BME280;28892;55.640;37.532;2024-01-30T10:33:36;99837.53;;;3.43;63.48
43298;BME280;28892;55.640;37.532;2024-01-30T10:36:03;99845.88;;;3.37;63.58
43298;BME280;28892;55.640;37.532;2024-01-30T10:38:30;99833.94;;;3.56;63.55
43298;BME280;28892;55.640;37.532;2024-01-30T10:40:57;99830.09;;;3.71;63.10
43298;BME280;28892;55.640;37.532;2024-01-30T10:43:35;99838.31;;;3.78;63.30
43298;BME280;28892;55.640;37.532;2024-01-30T10:46:11;99836.38;;;3.91;62.73
43298;BME280;28892;55.640;37.532;2024-01-30T10:48:42;99848.91;;;3.76;62.94
43298;BME280;28892;55.640;37.532;2024-01-30T10:51:13;99843.19;;;3.83;62.79
43298;BME280;28892;55.640;37.532;2024-01-30T10:53:39;99843.56;;;3.78;63.23
43298;BME280;28892;55.640;37.532;2024-01-30T10:56:10;99852.06;;;3.59;63.08
43298;BME280;28892;55.640;37.532;2024-01-30T10:58:38;99847.94;;;3.89;62.37
43298;BME280;28892;55.640;37.532;2024-01-30T11:01:05;99844.88;;;3.72;62.44
43298;BME280;28892;55.640;37.532;2024-01-30T11:03:35;99849.78;;;3.77;62.66
43298;BME280;28892;55.640;37.532;2024-01-30T11:06:03;99847.78;;;3.58;63.14
43298;BME280;28892;55.640;37.532;2024-01-30T11:08:38;99842.50;;;3.69;63.01
43298;BME280;28892;55.640;37.532;2024-01-30T11:11:16;99846.22;;;3.55;63.02
43298;BME280;28892;55.640;37.532;2024-01-30T11:13:50;99853.47;;;3.63;63.15
43298;BME280;28892;55.640;37.532;2024-01-30T11:16:30;99842.13;;;3.62;63.37
43298;BME280;28892;55.640;37.532;2024-01-30T11:19:01;99848.56;;;3.70;62.87
43298;BME280;28892;55.640;37.532;2024-01-30T11:21:54;99864.44;;;3.68;63.06
43298;BME280;28892;55.640;37.532;2024-01-30T11:24:25;99852.50;;;3.75;63.09
43298;BME280;28892;55.640;37.532;2024-01-30T11:26:55;99852.84;;;3.82;62.77
43298;BME280;28892;55.640;37.532;2024-01-30T11:29:29;99851.06;;;3.83;62.57
43298;BME280;28892;55.640;37.532;2024-01-30T11:31:56;99848.47;;;3.71;63.06
43298;BME280;28892;55.640;37.532;2024-01-30T11:34:23;99849.41;;;3.82;62.99
43298;BME280;28892;55.640;37.532;2024-01-30T11:37:11;99849.59;;;3.90;62.44
43298;BME280;28892;55.640;37.532;2024-01-30T11:39:39;99849.50;;;3.91;62.65
43298;BME280;28892;55.640;37.532;2024-01-30T11:42:11;99849.59;;;3.90;62.36
43298;BME280;28892;55.640;37.532;2024-01-30T11:44:40;99856.69;;;3.78;62.24
43298;BME280;28892;55.640;37.532;2024-01-30T11:47:18;99858.97;;;3.71;62.71
43298;BME280;28892;55.640;37.532;2024-01-30T11:49:53;99867.03;;;3.91;62.90
43298;BME280;28892;55.640;37.532;2024-01-30T11:52:34;99875.25;;;3.98;62.23
43298;BME280;28892;55.640;37.532;2024-01-30T11:55:06;99859.91;;;3.82;62.60
43298;BME280;28892;55.640;37.532;2024-01-30T11:57:48;99873.13;;;3.80;62.70
43298;BME280;28892;55.640;37.532;2024-01-30T12:00:14;99884.56;;;3.90;62.88
43298;BME280;28892;55.640;37.532;2024-01-30T12:02:54;99886.53;;;4.10;62.80
43298;BME280;28892;55.640;37.532;2024-01-30T12:05:26;99895.38;;;4.09;62.89
43298;BME280;28892;55.640;37.532;2024-01-30T12:07:55;99892.50;;;4.12;62.60
43298;BME280;28892;55.640;37.532;2024-01-30T12:10:24;99892.31;;;4.03;62.79
43298;BME280;28892;55.640;37.532;2024-01-30T12:12:50;99889.91;;;4.00;62.92
43298;BME280;28892;55.640;37.532;2024-01-30T12:15:16;99884.94;;;3.86;62.89
43298;BME280;28892;55.640;37.532;2024-01-30T12:17:46;99894.69;;;3.95;63.13
43298;BME280;28892;55.640;37.532;2024-01-30T12:20:20;99889.13;;;3.88;62.93
43298;BME280;28892;55.640;37.532;2024-01-30T12:22:49;99884.09;;;3.97;63.18
43298;BME280;28892;55.640;37.532;2024-01-30T12:25:44;99891.53;;;4.24;62.80
43298;BME280;28892;55.640;37.532;2024-01-30T12:28:14;99896.59;;;4.04;62.72
43298;BME280;28892;55.640;37.532;2024-01-30T12:33:50;99890.66;;;4.02;62.49
43298;BME280;28892;55.640;37.532;2024-01-30T12:36:31;99903.75;;;4.14;62.22
43298;BME280;28892;55.640;37.532;2024-01-30T12:39:04;99900.06;;;3.94;62.36
43298;BME280;28892;55.640;37.532;2024-01-30T12:41:45;99898.75;;;3.88;62.74
43298;BME280;28892;55.640;37.532;2024-01-30T12:44:14;99899.75;;;3.75;62.96
43298;BME280;28892;55.640;37.532;2024-01-30T12:46:48;99897.81;;;3.77;63.34
43298;BME280;28892;55.640;37.532;2024-01-30T12:49:20;99896.03;;;3.89;63.34
43298;BME280;28892;55.640;37.532;2024-01-30T12:51:59;99899.97;;;3.84;62.96
43298;BME280;28892;55.640;37.532;2024-01-30T12:55:06;99901.63;;;3.85;62.98
43298;BME280;28892;55.640;37.532;2024-01-30T12:57:45;99890.69;;;3.80;63.17
43298;BME280;28892;55.640;37.532;2024-01-30T13:00:15;99890.69;;;3.80;63.29
43298;BME280;28892;55.640;37.532;2024-01-30T13:02:49;99906.28;;;3.92;63.28
43298;BME280;28892;55.640;37.532;2024-01-30T13:05:40;99899.69;;;3.98;62.68
43298;BME280;28892;55.640;37.532;2024-01-30T13:08:18;99901.72;;;4.06;62.71
43298;BME280;28892;55.640;37.532;2024-01-30T13:10:47;99911.03;;;3.99;62.67
43298;BME280;28892;55.640;37.532;2024-01-30T13:13:15;99919.25;;;4.05;62.75
43298;BME280;28892;55.640;37.532;2024-01-30T13:15:42;99917.59;;;4.04;62.54
43298;BME280;28892;55.640;37.532;2024-01-30T13:18:23;99922.84;;;4.04;62.38
43298;BME280;28892;55.640;37.532;2024-01-30T13:21:03;99924.97;;;4.11;62.32
43298;BME280;28892;55.640;37.532;2024-01-30T13:23:39;99916.03;;;4.13;62.46
43298;BME280;28892;55.640;37.532;2024-01-30T13:33:39;99911.66;;;3.91;62.65
43298;BME280;28892;55.640;37.532;2024-01-30T13:36:09;99909.03;;;3.91;62.94
43298;BME280;28892;55.640;37.532;2024-01-30T13:38:38;99911.66;;;3.91;62.94
43298;BME280;28892;55.640;37.532;2024-01-30T13:41:11;99909.63;;;3.83;62.73
43298;BME280;28892;55.640;37.532;2024-01-30T13:43:44;99911.44;;;3.83;62.90
43298;BME280;28892;55.640;37.532;2024-01-30T13:46:13;99915.25;;;3.67;62.95
43298;BME280;28892;55.640;37.532;2024-01-30T13:49:00;99909.63;;;3.83;62.95
43298;BME280;28892;55.640;37.532;2024-01-30T13:51:32;99909.16;;;3.78;62.76
43298;BME280;28892;55.640;37.532;2024-01-30T13:54:00;99910.72;;;3.92;62.66
43298;BME280;28892;55.640;37.532;2024-01-30T13:56:29;99914.16;;;3.81;62.74